Multratug 19 — PCHZ — position and weather

sailwx.info

Track history (hours):
 
Tides and Currents Weather Stations Pressure Air Temp Water Temp Dewpoint Dewpoint Depression Visibility Wind Speed Wind Dir Waves Ship Positions

Multratug 19

Last reported at 2014-Oct-02 03:34 UTC. Time now 2014-Oct-02 04:33 UTC.
Position N 51°20' E 003°49'.

Length 32 m; draft 5.2 m.

Type: Tug. MMSI: 245875000.

Date/timePositionNaut miles runAvg speedWind from/ knotsBaromVisibWave heightAir tempDewpointWater temp
2014-Oct-02 03:34N 51°20' E 003°49'0 0.0
2014-Oct-02 02:34N 51°20' E 003°49'0 0.0
2014-Oct-02 01:34N 51°20' E 003°49'0 0.0
2014-Oct-02 00:34N 51°20' E 003°49'0 0.0
2014-Oct-01 23:34N 51°20' E 003°49'0 0.0
2014-Oct-01 22:34N 51°20' E 003°49'0 0.0
2014-Oct-01 21:34N 51°20' E 003°49'0 0.0
2014-Oct-01 20:34N 51°20' E 003°49'0 0.0
2014-Oct-01 19:34N 51°20' E 003°49'0 0.0
2014-Oct-01 18:34N 51°20' E 003°49'0 0.0
2014-Oct-01 17:33N 51°20' E 003°49'0 0.0
2014-Oct-01 16:34N 51°20' E 003°49'0 0.0
2014-Oct-01 15:34N 51°20' E 003°49'0 0.0
2014-Oct-01 14:34N 51°20' E 003°49'0 0.0
2014-Oct-01 13:34N 51°20' E 003°49'0 0.0
2014-Oct-01 12:34N 51°20' E 003°49'0 0.0
2014-Oct-01 11:34N 51°20' E 003°49'0 0.0
2014-Oct-01 10:34N 51°20' E 003°49'0 0.0
2014-Oct-01 09:34N 51°20' E 003°49'9 9.4
2014-Oct-01 08:34N 51°26' E 004°01'1110.5
2014-Oct-01 07:33N 51°21' E 004°16'0 0.4
2014-Oct-01 06:33N 51°21' E 004°16'0 0.5
2014-Oct-01 05:33N 51°21' E 004°16'7 7.4
2014-Oct-01 04:33N 51°22' E 004°04'8 7.8
2014-Oct-01 03:33N 51°21' E 003°52'2 1.8
2014-Oct-01 02:34N 51°20' E 003°49'0 0.0
2014-Oct-01 01:34N 51°20' E 003°49'0 0.0
2014-Oct-01 00:33N 51°20' E 003°49'0 0.0
2014-Sep-30 23:34N 51°20' E 003°49'0 0.0
2014-Sep-30 22:34N 51°20' E 003°49'0 0.0
2014-Sep-30 21:34N 51°20' E 003°49'0 0.0
2014-Sep-30 20:33N 51°20' E 003°49'0 0.0
2014-Sep-30 19:34N 51°20' E 003°49'0 0.0
2014-Sep-30 18:34N 51°20' E 003°49'0 0.0
2014-Sep-30 17:34N 51°20' E 003°49'0 0.0
2014-Sep-30 16:34N 51°20' E 003°49'0 0.0
2014-Sep-30 15:34N 51°20' E 003°49'0 0.0
2014-Sep-30 14:33N 51°20' E 003°49'0 0.0
2014-Sep-30 13:34N 51°20' E 003°49'0 0.0
2014-Sep-30 12:34N 51°20' E 003°49'0 0.0
2014-Sep-30 11:34N 51°20' E 003°49'0 0.0
2014-Sep-30 10:34N 51°20' E 003°49'0 0.0
2014-Sep-30 09:34N 51°20' E 003°49'0 0.0
2014-Sep-30 08:34N 51°20' E 003°49'0 0.0
2014-Sep-30 07:34N 51°20' E 003°49'7 6.6
2014-Sep-30 06:33N 51°24' E 003°41'10 9.6
2014-Sep-30 05:34N 51°24' E 003°25'1211.5
2014-Sep-30 04:33N 51°24' E 003°07'1211.6
2014-Sep-30 03:33N 51°25' E 002°49'1111.3
2014-Sep-30 02:33N 51°22' E 002°31'1111.2
2014-Sep-30 01:33N 51°17' E 002°15'1010.2
2014-Sep-30 00:33N 51°12' E 002°01'9 9.0
2014-Sep-29 23:33N 51°07' E 001°49'61 8.4
2014-Sep-29 16:13N 50°25' E 000°38'7 9.7
2014-Sep-29 15:31N 50°22' E 000°29'  
2014-Sep-25 22:32N 38°39' W 009°50'9 9.5
2014-Sep-25 21:33N 38°29' W 009°47'1010.0
2014-Sep-25 20:33N 38°20' W 009°45'10 9.7
2014-Sep-25 19:33N 38°10' W 009°42'10 9.9
2014-Sep-25 18:33N 38°01' W 009°40'1010.0
2014-Sep-25 17:32N 37°51' W 009°36'1010.1
2014-Sep-25 16:33N 37°41' W 009°34'10 9.9
2014-Sep-25 15:33N 37°31' W 009°32'1010.1
2014-Sep-25 14:31N 37°21' W 009°29'14 9.6
2014-Sep-25 13:05N 37°08' W 009°23'710.2
2014-Sep-25 12:24N 37°02' W 009°20'53 9.0
2014-Sep-25 06:33N 36°34' W 008°24'  
Track history (hours):
 
Tides and Currents Weather Stations Pressure Air Temp Water Temp Dewpoint Dewpoint Depression Visibility Wind Speed Wind Dir Waves Ship Positions

Multratug 19

Last reported at 2014-Oct-02 03:34 UTC. Time now 2014-Oct-02 04:33 UTC.
Position N 51°20' E 003°49'.

Length 32 m; draft 5.2 m.

Type: Tug. MMSI: 245875000.

Date/timePositionNaut miles runAvg speedWind from/ knotsBaromVisibWave heightAir tempDewpointWater temp
2014-Oct-02 03:34N 51°20' E 003°49'0 0.0
2014-Oct-02 02:34N 51°20' E 003°49'0 0.0
2014-Oct-02 01:34N 51°20' E 003°49'0 0.0
2014-Oct-02 00:34N 51°20' E 003°49'0 0.0
2014-Oct-01 23:34N 51°20' E 003°49'0 0.0
2014-Oct-01 22:34N 51°20' E 003°49'0 0.0
2014-Oct-01 21:34N 51°20' E 003°49'0 0.0
2014-Oct-01 20:34N 51°20' E 003°49'0 0.0
2014-Oct-01 19:34N 51°20' E 003°49'0 0.0
2014-Oct-01 18:34N 51°20' E 003°49'0 0.0
2014-Oct-01 17:33N 51°20' E 003°49'0 0.0
2014-Oct-01 16:34N 51°20' E 003°49'0 0.0
2014-Oct-01 15:34N 51°20' E 003°49'0 0.0
2014-Oct-01 14:34N 51°20' E 003°49'0 0.0
2014-Oct-01 13:34N 51°20' E 003°49'0 0.0
2014-Oct-01 12:34N 51°20' E 003°49'0 0.0
2014-Oct-01 11:34N 51°20' E 003°49'0 0.0
2014-Oct-01 10:34N 51°20' E 003°49'0 0.0
2014-Oct-01 09:34N 51°20' E 003°49'9 9.4
2014-Oct-01 08:34N 51°26' E 004°01'1110.5
2014-Oct-01 07:33N 51°21' E 004°16'0 0.4
2014-Oct-01 06:33N 51°21' E 004°16'0 0.5
2014-Oct-01 05:33N 51°21' E 004°16'7 7.4
2014-Oct-01 04:33N 51°22' E 004°04'8 7.8
2014-Oct-01 03:33N 51°21' E 003°52'2 1.8
2014-Oct-01 02:34N 51°20' E 003°49'0 0.0
2014-Oct-01 01:34N 51°20' E 003°49'0 0.0
2014-Oct-01 00:33N 51°20' E 003°49'0 0.0
2014-Sep-30 23:34N 51°20' E 003°49'0 0.0
2014-Sep-30 22:34N 51°20' E 003°49'0 0.0
2014-Sep-30 21:34N 51°20' E 003°49'0 0.0
2014-Sep-30 20:33N 51°20' E 003°49'0 0.0
2014-Sep-30 19:34N 51°20' E 003°49'0 0.0
2014-Sep-30 18:34N 51°20' E 003°49'0 0.0
2014-Sep-30 17:34N 51°20' E 003°49'0 0.0
2014-Sep-30 16:34N 51°20' E 003°49'0 0.0
2014-Sep-30 15:34N 51°20' E 003°49'0 0.0
2014-Sep-30 14:33N 51°20' E 003°49'0 0.0
2014-Sep-30 13:34N 51°20' E 003°49'0 0.0
2014-Sep-30 12:34N 51°20' E 003°49'0 0.0
2014-Sep-30 11:34N 51°20' E 003°49'0 0.0
2014-Sep-30 10:34N 51°20' E 003°49'0 0.0
2014-Sep-30 09:34N 51°20' E 003°49'0 0.0
2014-Sep-30 08:34N 51°20' E 003°49'0 0.0
2014-Sep-30 07:34N 51°20' E 003°49'7 6.6
2014-Sep-30 06:33N 51°24' E 003°41'10 9.6
2014-Sep-30 05:34N 51°24' E 003°25'1211.5
2014-Sep-30 04:33N 51°24' E 003°07'1211.6
2014-Sep-30 03:33N 51°25' E 002°49'1111.3
2014-Sep-30 02:33N 51°22' E 002°31'1111.2
2014-Sep-30 01:33N 51°17' E 002°15'1010.2
2014-Sep-30 00:33N 51°12' E 002°01'9 9.0
2014-Sep-29 23:33N 51°07' E 001°49'61 8.4
2014-Sep-29 16:13N 50°25' E 000°38'7 9.7
2014-Sep-29 15:31N 50°22' E 000°29'  
2014-Sep-25 22:32N 38°39' W 009°50'9 9.5
2014-Sep-25 21:33N 38°29' W 009°47'1010.0
2014-Sep-25 20:33N 38°20' W 009°45'10 9.7
2014-Sep-25 19:33N 38°10' W 009°42'10 9.9
2014-Sep-25 18:33N 38°01' W 009°40'1010.0
2014-Sep-25 17:32N 37°51' W 009°36'1010.1
2014-Sep-25 16:33N 37°41' W 009°34'10 9.9
2014-Sep-25 15:33N 37°31' W 009°32'1010.1
2014-Sep-25 14:31N 37°21' W 009°29'14 9.6
2014-Sep-25 13:05N 37°08' W 009°23'710.2
2014-Sep-25 12:24N 37°02' W 009°20'53 9.0
2014-Sep-25 06:33N 36°34' W 008°24'  

Dump ship's entire track history